Time;durP1;ratioP1;P1;durP2;ratioP2;P2;SDS_P1;SDS_P2;PMS_P1;PMS_P2;Temp;Humidity;BMP_temperature;BMP_pressure;BME280_temperature;BME280_humidity;BME280_pressure;Samples;Min_cycle;Max_cycle;Signal;HPM_P1;HPM_P2
2023/01/15 00:01:45;;;;;;;3.40;1.60;;;10.00;84.50;;;12.63;59.19;99443.19;5016762;28;20567;-55
2023/01/15 00:04:12;;;;;;;1.93;1.10;;;10.00;84.60;;;12.66;59.37;99442.75;5049173;28;20199;-53
2023/01/15 00:06:41;;;;;;;2.57;1.30;;;10.00;84.80;;;12.70;59.34;99438.63;5036874;28;20197;-52
2023/01/15 00:09:13;;;;;;;4.37;1.80;;;10.00;85.00;;;12.66;58.90;99437.47;5051680;28;20313;-54
2023/01/15 00:11:40;;;;;;;6.57;1.77;;;10.00;84.70;;;12.63;59.45;99443.19;5036829;28;20185;-53
2023/01/15 00:14:09;;;;;;;3.77;1.47;;;10.00;84.70;;;12.64;59.11;99436.91;5036558;28;20667;-53
2023/01/15 00:16:36;;;;;;;4.63;1.63;;;10.00;84.60;;;12.67;59.55;99444.38;5022137;28;20585;-53
2023/01/15 00:19:03;;;;;;;3.23;1.50;;;10.00;84.90;;;12.71;59.29;99435.00;5033327;28;20242;-56
2023/01/15 00:21:31;;;;;;;3.87;1.63;;;10.00;84.90;;;12.71;58.95;99432.34;5036143;28;20219;-53
2023/01/15 00:29:33;;;;;;;3.90;1.70;;;10.00;84.60;;;12.66;59.41;99433.00;5036024;28;20229;-53
2023/01/15 00:32:04;;;;;;;4.23;1.40;;;10.00;84.20;;;12.65;58.95;99446.41;5035231;28;20187;-53
2023/01/15 00:34:32;;;;;;;3.57;1.80;;;10.00;84.40;;;12.66;59.03;99453.31;5035477;28;20191;-52
2023/01/15 00:37:01;;;;;;;4.00;1.47;;;10.00;84.20;;;12.67;58.81;99449.66;5035852;28;20178;-53
2023/01/15 00:39:28;;;;;;;4.37;1.60;;;10.00;84.00;;;12.65;58.65;99451.69;5035997;28;20194;-53
2023/01/15 00:41:55;;;;;;;3.17;1.47;;;10.00;83.90;;;12.64;58.55;99450.09;5036185;28;20197;-54
2023/01/15 00:44:22;;;;;;;4.03;1.20;;;10.00;83.70;;;12.64;58.95;99456.19;5033690;28;20197;-53
2023/01/15 00:46:51;;;;;;;9.23;2.07;;;10.00;83.60;;;12.64;58.70;99452.72;5029516;28;20655;-52
2023/01/15 00:49:18;;;;;;;3.77;1.40;;;9.90;84.70;;;12.61;58.44;99459.25;5015973;28;20211;-54
2023/01/15 00:51:46;;;;;;;5.20;2.10;;;9.90;84.30;;;12.60;58.52;99464.75;5015840;28;20198;-53
2023/01/15 00:54:13;;;;;;;5.00;1.60;;;9.90;84.30;;;12.52;57.58;99463.22;5015665;28;20203;-53
2023/01/15 00:56:40;;;;;;;5.63;1.70;;;9.90;83.50;;;12.47;58.10;99459.59;5029097;28;20198;-52
2023/01/15 00:59:07;;;;;;;5.63;1.70;;;9.90;83.50;;;12.49;58.11;99468.09;5035326;28;20218;-52
2023/01/15 01:01:34;;;;;;;5.43;2.17;;;9.90;83.60;;;12.52;57.70;99470.31;5035056;28;20202;-52
2023/01/15 01:04:02;;;;;;;7.20;2.10;;;9.90;83.50;;;12.54;58.14;99461.16;5033239;28;20198;-52
2023/01/15 01:06:29;;;;;;;3.83;1.50;;;9.90;83.50;;;12.54;58.03;99465.63;5033868;28;20669;-52
2023/01/15 01:08:56;;;;;;;3.70;1.70;;;9.90;83.40;;;12.53;57.93;99471.91;5032272;28;20245;-53
2023/01/15 01:11:25;;;;;;;4.80;1.67;;;9.90;83.50;;;12.55;57.78;99472.53;5032679;28;20225;-57
2023/01/15 01:13:54;;;;;;;4.50;1.77;;;9.90;83.00;;;12.52;57.70;99472.94;5033139;28;20190;-51
2023/01/15 01:16:25;;;;;;;4.50;1.47;;;9.90;83.10;;;12.51;57.68;99463.41;5032238;28;20529;-58
2023/01/15 01:18:53;;;;;;;4.47;1.30;;;9.90;83.00;;;12.50;57.32;99473.19;5030755;28;20233;-55
2023/01/15 01:21:22;;;;;;;4.57;1.50;;;9.90;82.90;;;12.52;57.57;99483.50;5032511;28;20586;-57
2023/01/15 01:23:49;;;;;;;2.60;1.47;;;9.80;83.00;;;12.50;57.31;99480.28;5034548;28;20209;-55
2023/01/15 01:26:16;;;;;;;4.37;1.30;;;9.90;82.90;;;12.53;57.44;99479.81;5034287;28;20194;-52
2023/01/15 01:28:47;;;;;;;3.90;1.60;;;9.90;82.90;;;12.53;57.15;99485.09;5033556;28;20609;-53
2023/01/15 01:31:15;;;;;;;6.07;1.70;;;9.90;82.60;;;12.43;56.50;99474.28;5034485;28;20202;-54
2023/01/15 01:33:42;;;;;;;2.97;1.70;;;9.90;82.00;;;12.38;57.00;99479.38;5034702;28;20210;-54
2023/01/15 01:36:09;;;;;;;8.43;1.60;;;9.90;82.20;;;12.43;56.64;99474.28;5033638;28;20273;-56
2023/01/15 01:38:38;;;;;;;7.00;2.17;;;9.90;81.90;;;12.38;56.86;99482.84;5034878;28;20209;-54
2023/01/15 01:41:05;;;;;;;4.27;1.20;;;9.90;81.80;;;12.44;56.85;99486.41;5028709;28;20199;-54
2023/01/15 01:43:54;;;;;;;6.33;1.73;;;9.90;82.00;;;12.43;56.96;99480.31;5025582;28;20268;-55
2023/01/15 01:46:22;;;;;;;4.37;1.77;;;9.90;82.00;;;12.50;56.94;99482.94;5035057;28;20197;-53
2023/01/15 01:48:54;;;;;;;4.63;1.63;;;9.90;82.10;;;12.50;56.83;99475.81;5036707;28;20232;-54
2023/01/15 01:51:27;;;;;;;3.00;1.90;;;9.90;82.20;;;12.48;56.77;99471.78;5039167;28;20204;-54
2023/01/15 01:53:58;;;;;;;3.90;1.80;;;9.90;82.00;;;12.46;56.61;99477.25;5029074;28;20281;-53
2023/01/15 01:56:26;;;;;;;4.83;1.90;;;9.90;82.00;;;12.46;56.85;99465.88;5037568;28;20580;-54
2023/01/15 01:58:54;;;;;;;7.70;2.00;;;9.90;82.00;;;12.41;56.87;99466.53;5038843;28;20214;-53
2023/01/15 02:01:24;;;;;;;3.70;1.93;;;9.90;81.80;;;12.43;56.90;99469.00;5038141;28;20195;-52
2023/01/15 02:03:52;;;;;;;6.87;2.17;;;9.80;82.00;;;12.44;56.91;99475.88;5040186;28;20711;-51
2023/01/15 02:06:23;;;;;;;11.37;2.30;;;9.80;82.10;;;12.44;56.89;99484.59;5039026;28;20182;-53
2023/01/15 02:08:50;;;;;;;3.77;1.57;;;9.80;82.10;;;12.43;56.98;99479.53;5036155;28;20586;-52
2023/01/15 02:11:22;;;;;;;6.33;1.67;;;9.80;82.20;;;12.46;57.00;99471.16;5037774;28;20515;-53
2023/01/15 02:13:59;;;;;;;6.73;1.80;;;9.80;82.30;;;12.45;56.85;99486.22;5038042;28;20274;-54
2023/01/15 02:16:38;;;;;;;8.63;2.47;;;9.80;82.30;;;12.44;56.97;99473.22;5037769;28;20261;-52
2023/01/15 02:19:21;;;;;;;4.70;1.70;;;9.80;82.20;;;12.41;56.87;99469.19;5038506;28;20297;-54
2023/01/15 02:22:01;;;;;;;3.57;1.60;;;9.80;82.20;;;12.43;56.70;99474.28;5035975;28;20201;-51
2023/01/15 02:24:44;;;;;;;6.90;2.00;;;9.80;82.20;;;12.43;56.84;99476.91;5021633;28;20195;-53
2023/01/15 02:27:16;;;;;;;8.53;2.13;;;9.80;82.20;;;12.43;56.69;99476.91;5029171;28;20267;-55
2023/01/15 02:30:02;;;;;;;4.27;1.37;;;9.80;82.10;;;12.41;56.71;99489.50;5025923;28;20274;-54
2023/01/15 02:32:39;;;;;;;3.70;1.70;;;9.80;82.10;;;12.40;56.87;99474.69;5023966;28;20198;-53
2023/01/15 02:35:15;;;;;;;4.97;2.07;;;9.80;81.80;;;12.41;56.68;99478.97;5016924;28;20202;-53
2023/01/15 02:37:50;;;;;;;5.77;2.00;;;9.80;81.90;;;12.36;56.76;99476.94;5037816;28;20230;-56
2023/01/15 02:40:21;;;;;;;4.30;1.90;;;9.80;81.80;;;12.37;56.55;99472.47;5023028;28;20186;-56
2023/01/15 02:42:50;;;;;;;4.27;1.93;;;9.80;81.80;;;12.40;56.70;99477.34;5028448;28;20217;-54
2023/01/15 02:45:23;;;;;;;9.87;2.20;;;9.80;81.70;;;12.36;56.78;99478.81;5016810;28;20725;-55
2023/01/15 02:47:53;;;;;;;4.80;2.40;;;9.70;81.60;;;12.35;56.78;99483.25;5017065;28;20226;-54
2023/01/15 02:50:28;;;;;;;7.27;1.93;;;9.80;81.80;;;12.36;56.44;99473.53;5018450;28;20191;-53
2023/01/15 02:53:04;;;;;;;7.23;2.10;;;9.80;81.60;;;12.34;56.34;99481.63;5019400;28;20210;-53
2023/01/15 02:55:38;;;;;;;6.47;2.37;;;9.70;81.50;;;12.34;56.59;99486.91;5021049;28;20213;-51
2023/01/15 02:58:13;;;;;;;8.93;2.03;;;9.70;81.50;;;12.29;56.45;99465.66;5028647;28;20217;-54
2023/01/15 03:00:47;;;;;;;7.93;2.50;;;9.80;81.30;;;12.29;56.30;99467.50;5015976;28;20205;-55
2023/01/15 03:03:24;;;;;;;7.93;1.77;;;9.80;81.10;;;12.28;56.25;99466.69;5016633;28;20183;-52
2023/01/15 03:05:59;;;;;;;12.20;2.83;;;9.70;81.80;;;12.28;56.26;99465.88;5034417;28;20210;-52
2023/01/15 03:08:26;;;;;;;6.57;2.03;;;9.70;81.20;;;12.29;56.37;99470.13;5017715;28;20219;-53
2023/01/15 03:11:05;;;;;;;5.97;2.07;;;9.70;80.90;;;12.29;56.16;99451.66;5017516;28;20202;-54
2023/01/15 03:13:45;;;;;;;7.43;1.90;;;9.70;80.80;;;12.25;56.29;99456.56;5017131;28;20202;-52
2023/01/15 03:16:36;;;;;;;10.27;2.27;;;9.70;80.70;;;12.21;55.97;99458.03;5016807;28;20688;-55
2023/01/15 03:19:21;;;;;;;9.07;2.60;;;9.70;80.50;;;12.20;56.44;99459.84;5016618;28;20568;-53
2023/01/15 03:21:56;;;;;;;5.47;2.07;;;9.70;80.70;;;12.21;56.14;99455.38;5034187;28;20191;-52
2023/01/15 03:24:31;;;;;;;6.83;2.67;;;9.70;80.60;;;12.18;55.69;99455.81;5036412;28;20656;-54
2023/01/15 03:27:00;;;;;;;8.00;2.20;;;9.70;80.00;;;12.12;55.39;99451.41;5036810;28;20193;-55
2023/01/15 03:29:33;;;;;;;10.37;1.97;;;9.70;79.70;;;12.02;56.04;99446.63;5036603;28;20675;-51
2023/01/15 03:32:00;;;;;;;5.87;1.73;;;9.70;79.50;;;12.07;55.80;99443.34;5034861;28;20179;-54
2023/01/15 03:34:36;;;;;;;5.10;1.87;;;9.70;79.60;;;12.13;55.60;99438.00;5034388;28;20210;-53
2023/01/15 03:37:04;;;;;;;7.57;2.67;;;9.70;79.80;;;12.11;55.61;99440.06;5035598;28;20194;-53
2023/01/15 03:39:31;;;;;;;6.40;1.70;;;9.70;79.70;;;12.16;56.00;99429.66;5035494;28;20189;-52
2023/01/15 03:42:13;;;;;;;7.57;2.13;;;9.70;79.60;;;12.17;55.17;99423.34;5036402;28;20195;-54
2023/01/15 03:44:55;;;;;;;6.23;1.90;;;9.70;79.50;;;12.15;55.42;99425.41;5027957;28;20240;-55
2023/01/15 03:47:38;;;;;;;7.73;2.20;;;9.70;79.30;;;12.17;55.36;99433.91;5016482;28;20226;-52
2023/01/15 03:50:16;;;;;;;5.80;2.10;;;9.70;79.30;;;12.11;55.25;99433.97;5016338;28;20237;-52
2023/01/15 03:52:50;;;;;;;6.37;2.03;;;9.70;79.10;;;12.10;55.47;99433.16;5016115;28;20191;-53
2023/01/15 03:55:22;;;;;;;6.57;1.93;;;9.60;78.90;;;12.07;55.53;99427.50;5029232;28;20528;-52
2023/01/15 03:57:55;;;;;;;6.33;1.80;;;9.60;78.90;;;12.11;55.34;99434.78;5036291;28;20211;-53
2023/01/15 04:00:29;;;;;;;7.57;2.27;;;9.60;79.00;;;12.14;55.24;99429.06;5034995;28;20198;-53
2023/01/15 04:02:59;;;;;;;7.63;1.83;;;9.60;79.10;;;12.20;55.12;99430.00;5033186;28;20178;-54
2023/01/15 04:05:29;;;;;;;6.30;1.80;;;9.60;79.10;;;12.24;55.13;99423.31;5020803;28;20199;-53
2023/01/15 04:07:58;;;;;;;8.37;2.30;;;9.60;79.20;;;12.25;54.93;99427.53;5018823;28;20225;-52
2023/01/15 04:10:25;;;;;;;6.53;2.33;;;9.60;79.20;;;12.24;54.80;99424.09;5036115;28;20216;-52
2023/01/15 04:12:52;;;;;;;9.83;1.83;;;9.60;78.70;;;12.24;54.84;99410.91;5034627;28;20187;-53
2023/01/15 04:15:19;;;;;;;3.83;1.33;;;9.70;78.90;;;12.29;54.93;99414.72;5035157;28;20198;-53
2023/01/15 04:17:48;;;;;;;3.57;1.83;;;9.70;79.00;;;12.33;54.97;99408.00;5016884;28;20219;-52
2023/01/15 04:20:15;;;;;;;5.33;2.10;;;9.70;79.10;;;12.38;54.75;99423.97;5026164;28;20191;-53
2023/01/15 04:22:42;;;;;;;9.03;2.40;;;9.70;78.90;;;12.36;54.60;99423.38;5017356;28;20200;-57
2023/01/15 04:25:10;;;;;;;5.80;2.33;;;9.70;78.50;;;12.38;54.68;99413.41;5014948;28;20509;-55
2023/01/15 04:27:37;;;;;;;7.43;2.63;;;9.70;78.70;;;12.40;54.47;99422.72;5024526;28;20771;-54
2023/01/15 04:30:05;;;;;;;7.17;2.70;;;9.70;78.20;;;12.39;54.14;99425.56;5015674;28;20230;-52
2023/01/15 04:32:32;;;;;;;7.47;2.20;;;9.70;78.00;;;12.38;54.14;99434.53;5026481;28;20194;-53
2023/01/15 04:35:00;;;;;;;11.73;2.10;;;9.70;78.00;;;12.41;54.17;99434.09;5033693;28;20676;-53
2023/01/15 04:37:27;;;;;;;10.17;3.00;;;9.80;77.90;;;12.45;54.04;99425.53;5019245;28;20286;-53
2023/01/15 04:39:54;;;;;;;13.93;3.30;;;9.80;78.10;;;12.43;53.73;99421.50;5014358;28;20195;-52
2023/01/15 04:45:08;;;;;;;11.67;2.80;;;9.80;77.50;;;12.39;53.09;99413.19;5018079;28;20571;-53
2023/01/15 04:47:35;;;;;;;9.03;3.20;;;9.80;76.80;;;12.40;53.20;99417.44;5014591;28;20225;-53
2023/01/15 04:50:05;;;;;;;6.10;2.60;;;9.80;76.90;;;12.44;53.59;99412.53;5014776;28;20228;-52
2023/01/15 04:52:32;;;;;;;8.20;3.00;;;9.80;76.80;;;12.49;53.50;99410.03;5014480;28;20575;-52
2023/01/15 04:54:59;;;;;;;8.73;3.13;;;9.80;76.90;;;12.55;53.48;99417.09;5033356;28;20198;-52
2023/01/15 04:57:27;;;;;;;10.50;2.37;;;9.80;76.90;;;12.49;52.77;99404.75;5031546;28;20219;-52
2023/01/15 04:59:54;;;;;;;11.27;3.57;;;9.80;76.40;;;12.46;53.13;99413.94;5029736;28;20273;-53
2023/01/15 05:02:21;;;;;;;10.60;2.40;;;9.90;76.60;;;12.18;52.96;99398.59;5014846;28;20187;-52
2023/01/15 05:04:49;;;;;;;10.07;2.80;;;9.80;76.60;;;12.11;53.22;99395.22;5017203;28;20218;-53
2023/01/15 05:07:18;;;;;;;6.20;2.53;;;9.80;75.70;;;12.20;53.24;99407.09;5028629;28;20202;-52
2023/01/15 05:09:47;;;;;;;11.57;3.10;;;9.80;75.90;;;12.30;53.26;99400.50;5013957;28;20282;-53
2023/01/15 05:12:14;;;;;;;8.80;2.80;;;9.80;76.10;;;12.36;53.03;99397.78;5024056;28;20198;-53
2023/01/15 05:14:41;;;;;;;7.27;2.37;;;9.80;75.80;;;12.42;52.97;99398.75;5033268;28;20191;-52
2023/01/15 05:17:08;;;;;;;8.47;2.07;;;9.80;75.80;;;12.39;51.99;99393.91;5033743;28;20289;-53
2023/01/15 05:19:35;;;;;;;8.80;2.47;;;9.80;75.10;;;12.33;52.54;99392.16;5033964;28;20199;-53
2023/01/15 05:22:02;;;;;;;8.03;2.50;;;9.80;74.80;;;12.34;52.38;99391.16;5034165;28;20205;-52
2023/01/15 05:24:30;;;;;;;8.87;2.53;;;9.80;75.10;;;12.37;52.32;99396.78;5033926;28;20269;-53
2023/01/15 05:26:58;;;;;;;10.40;2.77;;;9.80;74.90;;;12.38;52.13;99392.31;5019989;28;21003;-54
2023/01/15 05:29:25;;;;;;;7.63;2.37;;;9.80;74.70;;;12.40;51.99;99391.06;5025588;28;20218;-55
2023/01/15 05:31:52;;;;;;;5.37;2.23;;;9.80;74.70;;;12.43;51.69;99389.81;5033914;28;20187;-54
2023/01/15 05:34:19;;;;;;;7.70;2.00;;;9.80;74.70;;;12.43;51.93;99384.56;5033837;28;20198;-54
2023/01/15 05:36:46;;;;;;;7.07;2.30;;;9.80;74.80;;;12.42;51.40;99399.56;5025063;28;20225;-53
2023/01/15 05:39:13;;;;;;;6.13;2.07;;;9.70;74.30;;;12.41;51.50;99381.31;5016714;28;20671;-52
2023/01/15 05:41:50;;;;;;;9.77;2.97;;;9.70;74.10;;;12.37;51.32;99385.41;5034471;28;20216;-50
2023/01/15 05:44:22;;;;;;;8.60;2.43;;;9.80;74.30;;;12.38;51.80;99387.03;5033482;28;20629;-53
2023/01/15 05:46:51;;;;;;;7.17;1.80;;;9.70;74.60;;;12.41;51.91;99397.16;5024957;28;20560;-53
2023/01/15 05:49:21;;;;;;;8.47;2.57;;;9.70;74.70;;;12.45;51.67;99398.31;5033432;28;20679;-54
2023/01/15 05:51:50;;;;;;;10.07;2.77;;;9.70;74.70;;;12.42;51.76;99393.47;5033637;28;20651;-52
2023/01/15 05:54:23;;;;;;;5.67;1.93;;;9.70;74.60;;;12.37;51.80;99406.50;5020896;28;20210;-53
2023/01/15 05:56:51;;;;;;;10.37;2.40;;;9.70;74.60;;;12.29;52.03;99409.47;5015889;28;20195;-54
2023/01/15 05:59:22;;;;;;;10.27;2.30;;;9.70;74.60;;;12.34;52.08;99401.69;5014155;28;20579;-52
2023/01/15 06:01:50;;;;;;;9.10;2.40;;;9.70;74.90;;;12.42;52.00;99409.31;5014149;28;20270;-55
2023/01/15 06:04:20;;;;;;;9.37;2.43;;;9.70;75.10;;;12.42;51.92;99414.59;5013734;28;20203;-55
2023/01/15 06:06:49;;;;;;;8.07;2.23;;;9.70;74.90;;;12.45;51.72;99411.53;5020429;28;20191;-55
2023/01/15 06:09:17;;;;;;;10.80;2.30;;;9.80;74.90;;;12.47;51.84;99409.47;5013846;28;20215;-52
2023/01/15 06:11:45;;;;;;;9.33;2.47;;;9.80;74.70;;;12.49;51.77;99412.69;5025519;28;20567;-52
2023/01/15 06:14:13;;;;;;;7.67;2.33;;;9.70;74.70;;;12.48;51.29;99413.72;5014029;28;20191;-52
2023/01/15 06:16:41;;;;;;;5.77;1.93;;;9.70;74.50;;;12.28;51.33;99407.84;5013310;28;20194;-53
2023/01/15 06:19:11;;;;;;;10.80;2.90;;;9.70;74.10;;;12.28;51.40;99397.28;5013651;28;20212;-52
2023/01/15 06:21:38;;;;;;;9.33;2.67;;;9.70;74.30;;;12.27;51.58;99412.28;5022450;28;20183;-53
2023/01/15 06:24:07;;;;;;;8.60;2.50;;;9.70;74.40;;;12.23;51.95;99400.56;5015421;28;20199;-53
2023/01/15 06:26:34;;;;;;;6.53;2.33;;;9.70;74.30;;;12.26;52.05;99412.53;5032185;28;20202;-53
2023/01/15 06:29:01;;;;;;;6.63;2.27;;;9.70;74.50;;;12.27;51.68;99400.94;5014838;28;20207;-53
2023/01/15 06:31:29;;;;;;;6.73;2.07;;;9.70;74.50;;;12.28;51.68;99410.47;5013375;28;20191;-51
2023/01/15 06:33:56;;;;;;;7.63;2.17;;;9.70;74.40;;;12.30;52.00;99401.31;5012911;28;20257;-53
2023/01/15 06:36:25;;;;;;;5.30;2.10;;;9.60;74.70;;;12.30;51.53;99400.50;5028351;28;20198;-52
2023/01/15 06:38:53;;;;;;;5.53;2.13;;;9.60;74.10;;;12.29;51.51;99404.19;5035229;28;20210;-55
2023/01/15 06:47:20;;;;;;;9.00;1.77;;;9.60;74.10;;;12.28;51.11;99397.28;5014804;28;20563;-53
2023/01/15 06:49:51;;;;;;;7.57;2.10;;;9.60;74.00;;;12.27;51.43;99390.38;5024425;28;20261;-54
2023/01/15 06:52:18;;;;;;;7.17;2.27;;;9.60;74.10;;;12.24;51.24;99391.66;5035919;28;20194;-54
2023/01/15 06:54:45;;;;;;;9.13;2.30;;;9.60;73.80;;;12.24;51.46;99402.97;5018736;28;20249;-52
2023/01/15 06:57:12;;;;;;;5.20;2.17;;;9.60;73.90;;;12.24;51.08;99391.66;5029665;28;20205;-53
2023/01/15 06:59:39;;;;;;;5.17;1.73;;;9.50;73.80;;;12.21;51.48;99392.06;5016619;28;20192;-53
2023/01/15 07:02:09;;;;;;;7.30;1.90;;;9.50;73.80;;;12.17;51.20;99381.13;5017414;28;20672;-55
2023/01/15 07:04:36;;;;;;;4.03;1.70;;;9.50;73.70;;;12.14;51.60;99384.25;5033335;28;20605;-54
2023/01/15 07:07:03;;;;;;;3.97;1.87;;;9.50;73.70;;;12.11;51.29;99389.94;5036432;28;20746;-53
2023/01/15 07:09:30;;;;;;;3.40;1.80;;;9.50;73.70;;;12.12;51.04;99386.25;5036051;28;20193;-53
2023/01/15 07:11:57;;;;;;;9.77;2.30;;;9.50;73.50;;;12.14;51.12;99397.44;5016318;28;20245;-56
2023/01/15 07:14:27;;;;;;;7.60;2.07;;;9.50;73.50;;;12.16;50.83;99390.09;5015672;28;20202;-55
2023/01/15 07:16:54;;;;;;;11.77;2.17;;;9.40;72.80;;;12.17;50.67;99381.13;5020130;28;20271;-54
2023/01/15 07:19:22;;;;;;;4.83;2.20;;;9.40;72.70;;;12.14;50.47;99381.59;5030322;28;20309;-53
2023/01/15 07:21:50;;;;;;;4.70;2.13;;;9.40;72.50;;;12.02;50.70;99388.59;5016615;28;20683;-55
2023/01/15 07:24:17;;;;;;;6.87;2.30;;;9.40;72.20;;;12.01;50.77;99396.72;5015723;28;20188;-55
2023/01/15 07:26:44;;;;;;;7.57;1.90;;;9.40;72.30;;;11.95;50.50;99393.13;5014731;28;20194;-54
2023/01/15 07:29:12;;;;;;;6.70;2.20;;;9.40;72.30;;;11.97;50.43;99387.63;5015701;28;20684;-53
2023/01/15 07:31:39;;;;;;;6.03;2.00;;;9.40;72.50;;;11.90;51.02;99379.78;5020691;28;20230;-55
2023/01/15 07:34:07;;;;;;;8.47;2.23;;;9.30;72.30;;;11.93;51.15;99389.88;5016213;28;20195;-53
2023/01/15 07:36:35;;;;;;;9.13;2.10;;;9.40;72.90;;;11.94;50.94;99388.06;5015499;28;20191;-53
2023/01/15 07:39:04;;;;;;;6.90;2.60;;;9.30;72.90;;;11.93;50.90;99391.75;5015352;28;20215;-55
2023/01/15 07:49:55;;;;;;;11.17;2.10;;;9.20;73.00;;;11.75;51.02;99405.66;5034950;28;20226;-54
2023/01/15 07:52:23;;;;;;;11.33;2.73;;;9.20;73.10;;;11.78;51.09;99407.88;5033292;28;20198;-53
2023/01/15 07:54:50;;;;;;;7.37;2.00;;;9.10;73.00;;;11.76;51.50;99403.84;5016520;28;20555;-56
2023/01/15 07:57:20;;;;;;;8.43;2.40;;;9.10;73.30;;;11.68;51.38;99399.63;5033858;28;20213;-53
2023/01/15 07:59:48;;;;;;;7.10;1.73;;;9.10;73.30;;;11.70;51.26;99409.94;5033794;28;20201;-53
2023/01/15 08:02:15;;;;;;;9.00;2.50;;;9.10;73.40;;;11.64;51.76;99414.25;5034762;28;20701;-54
2023/01/15 08:04:42;;;;;;;4.07;1.93;;;9.10;73.50;;;11.61;52.14;99406.75;5034250;28;20199;-55
2023/01/15 08:07:11;;;;;;;4.73;1.90;;;9.10;73.50;;;11.64;51.72;99398.44;5034517;28;20195;-52
2023/01/15 08:09:40;;;;;;;6.87;1.57;;;9.10;73.10;;;11.59;51.50;99403.53;5035232;28;20191;-52
2023/01/15 08:15:13;;;;;;;3.47;1.53;;;9.10;72.80;;;11.52;50.68;99397.50;5028069;28;20203;-53
2023/01/15 08:17:43;;;;;;;6.63;2.07;;;9.10;71.90;;;11.45;50.95;99413.38;5014848;28;20225;-55
2023/01/15 08:20:15;;;;;;;6.73;1.63;;;9.10;71.70;;;11.48;50.58;99412.13;5014957;28;20624;-54
2023/01/15 08:22:43;;;;;;;7.70;2.37;;;9.10;71.00;;;11.55;50.03;99418.16;5013431;28;20695;-55
2023/01/15 08:25:15;;;;;;;4.70;1.70;;;9.10;70.90;;;11.55;49.79;99400.50;5029305;28;20192;-52
2023/01/15 08:27:42;;;;;;;3.53;1.30;;;9.10;70.40;;;11.52;49.64;99402.78;5017712;28;20215;-54
2023/01/15 08:30:13;;;;;;;3.83;1.43;;;9.10;70.40;;;11.47;48.81;99410.50;5012687;28;20639;-53
2023/01/15 08:32:40;;;;;;;2.53;1.57;;;9.00;69.60;;;11.48;49.54;99402.38;5012980;28;20193;-54
2023/01/15 08:35:08;;;;;;;8.23;1.97;;;9.00;69.30;;;11.38;49.35;99394.16;5012464;28;20183;-52
2023/01/15 08:37:35;;;;;;;6.30;1.87;;;9.00;69.00;;;11.46;49.48;99399.16;5013265;28;20690;-55
2023/01/15 08:40:03;;;;;;;5.33;1.60;;;9.00;69.20;;;11.37;49.13;99383.81;5015692;28;20209;-54
2023/01/15 08:42:32;;;;;;;4.60;1.63;;;8.90;68.90;;;11.43;49.28;99398.78;5014637;28;20206;-54
2023/01/15 08:44:59;;;;;;;2.53;1.33;;;8.90;69.00;;;11.47;48.87;99410.50;5014268;28;20203;-53
2023/01/15 08:47:26;;;;;;;4.53;1.37;;;8.90;69.00;;;11.44;48.77;99403.03;5014286;28;20215;-54
2023/01/15 08:49:53;;;;;;;4.03;1.53;;;8.90;68.50;;;11.41;47.74;99401.63;5016442;28;20195;-53
2023/01/15 08:52:20;;;;;;;2.07;0.97;;;8.90;68.00;;;11.43;48.42;99404.06;5034325;28;20206;-52
2023/01/15 08:54:47;;;;;;;3.87;1.70;;;8.90;68.40;;;11.46;48.56;99403.59;5016892;28;20297;-55
2023/01/15 08:57:14;;;;;;;3.73;1.30;;;8.80;68.40;;;11.46;48.40;99408.88;5030943;28;20192;-53
2023/01/15 08:59:43;;;;;;;4.63;2.00;;;8.90;68.50;;;11.42;47.97;99397.16;5032805;28;20274;-54
2023/01/15 09:02:13;;;;;;;5.60;1.30;;;8.80;68.40;;;11.34;48.73;99406.13;5033212;28;20214;-52
2023/01/15 09:04:40;;;;;;;6.27;1.50;;;8.80;68.60;;;11.26;49.03;99405.56;5033708;28;20670;-55
2023/01/15 09:07:07;;;;;;;3.73;2.03;;;8.80;69.10;;;11.28;49.18;99390.38;5035014;28;20198;-53
2023/01/15 09:09:34;;;;;;;5.57;1.50;;;8.80;69.60;;;11.26;49.60;99406.38;5035526;28;20206;-56
2023/01/15 09:12:01;;;;;;;5.87;2.07;;;8.80;70.00;;;11.25;50.04;99409.22;5033681;28;20214;-53
2023/01/15 09:14:29;;;;;;;8.03;1.90;;;8.80;70.30;;;11.31;50.05;99416.28;5032655;28;20206;-53
2023/01/15 09:17:17;;;;;;;6.37;1.93;;;8.80;70.70;;;11.35;50.13;99409.56;5032953;28;20261;-56
2023/01/15 09:19:45;;;;;;;6.30;2.00;;;8.80;71.00;;;11.37;50.11;99404.88;5033285;28;20209;-55
2023/01/15 09:22:12;;;;;;;4.80;1.63;;;8.80;70.90;;;11.28;50.06;99411.44;5032001;28;20217;-53
2023/01/15 09:24:39;;;;;;;6.07;1.67;;;8.80;70.90;;;11.26;50.19;99416.09;5033089;28;20197;-54
2023/01/15 09:27:06;;;;;;;6.07;1.50;;;8.80;71.00;;;11.33;50.76;99407.16;5016153;28;20625;-52
2023/01/15 09:29:33;;;;;;;4.60;1.40;;;8.80;71.10;;;11.28;50.26;99417.50;5017527;28;20194;-53
2023/01/15 09:32:01;;;;;;;4.10;1.87;;;8.80;70.70;;;11.36;50.37;99409.34;5015200;28;20245;-52
2023/01/15 09:34:29;;;;;;;7.50;1.80;;;8.90;70.70;;;11.47;49.49;99410.50;5013361;28;20223;-55
2023/01/15 09:36:56;;;;;;;6.23;1.87;;;8.90;70.10;;;11.54;49.10;99411.25;5029076;28;20202;-56
2023/01/15 09:39:23;;;;;;;6.30;1.70;;;8.90;70.10;;;11.63;48.55;99409.16;5033614;28;20202;-55
2023/01/15 09:42:17;;;;;;;7.53;1.63;;;9.00;69.50;;;11.66;48.63;99428.00;5033508;28;20190;-54
2023/01/15 09:45:07;;;;;;;6.17;1.93;;;9.00;68.60;;;11.77;48.00;99427.34;5032933;28;20206;-53
2023/01/15 09:47:50;;;;;;;5.57;1.70;;;9.00;68.40;;;11.95;47.81;99423.97;5017367;28;20225;-52
2023/01/15 09:50:33;;;;;;;4.80;1.87;;;9.10;67.90;;;12.00;47.08;99424.94;5013356;28;20249;-53
2023/01/15 09:53:25;;;;;;;3.60;1.47;;;9.20;66.70;;;11.97;46.41;99416.63;5013625;28;20206;-54
2023/01/15 09:55:53;;;;;;;4.43;1.57;;;9.30;66.10;;;12.05;46.53;99417.16;5021784;28;20252;-54
2023/01/15 09:58:32;;;;;;;4.80;1.60;;;9.40;65.80;;;12.05;45.90;99414.53;5039366;28;20212;-54
2023/01/15 10:00:59;;;;;;;5.03;1.97;;;9.40;65.40;;;12.16;45.87;99415.66;5032654;28;20191;-55
2023/01/15 10:03:37;;;;;;;6.90;1.47;;;9.40;64.90;;;12.35;46.21;99414.66;5025153;28;20222;-56
2023/01/15 10:06:14;;;;;;;7.97;1.87;;;9.50;65.30;;;12.47;45.75;99422.66;5021054;28;20193;-54
2023/01/15 10:08:45;;;;;;;3.63;1.30;;;9.60;65.10;;;12.54;44.96;99428.66;5030915;28;20324;-57
2023/01/15 10:12:34;;;;;;;3.30;1.70;;;9.70;64.40;;;12.65;45.07;99425.28;5033388;28;20706;-53
2023/01/15 10:14:37;;;;;;;4.87;1.40;;;9.80;64.70;;;12.78;44.99;99411.97;5035065;28;20313;-53
2023/01/15 10:17:21;;;;;;;3.50;1.80;;;9.90;64.70;;;12.76;44.84;99406.09;5026837;28;20195;-53
2023/01/15 10:19:48;;;;;;;4.93;1.83;;;9.90;64.40;;;12.84;44.85;99413.69;5015867;28;20195;-52
2023/01/15 10:22:33;;;;;;;3.37;1.37;;;9.90;64.40;;;12.59;44.85;99383.94;5015409;28;20184;-54
2023/01/15 10:25:08;;;;;;;5.70;1.60;;;9.90;64.10;;;12.56;45.42;99400.22;5016447;28;20192;-53
2023/01/15 10:27:39;;;;;;;7.10;1.80;;;10.00;63.20;;;12.72;45.18;99394.34;5016848;28;20222;-52
2023/01/15 10:30:15;;;;;;;7.53;1.80;;;10.00;63.20;;;12.80;45.24;99386.13;5016889;28;20195;-54
2023/01/15 10:32:49;;;;;;;3.80;1.67;;;10.10;63.00;;;12.75;44.78;99394.72;5017984;28;20671;-55
2023/01/15 10:35:44;;;;;;;7.20;1.90;;;10.10;62.60;;;12.75;45.33;99380.72;5016735;28;20194;-56
2023/01/15 10:38:25;;;;;;;5.60;1.83;;;10.10;62.90;;;12.77;44.71;99381.28;5017266;28;20214;-53
2023/01/15 10:41:30;;;;;;;4.57;1.60;;;10.10;62.70;;;12.68;44.89;99385.25;5017238;28;20190;-53
2023/01/15 10:44:07;;;;;;;4.27;1.80;;;10.10;62.70;;;12.75;44.94;99368.31;5016641;28;20241;-53
2023/01/15 10:46:39;;;;;;;6.00;1.60;;;10.10;62.30;;;12.70;45.03;99372.63;5027822;28;20204;-56
2023/01/15 10:49:14;;;;;;;7.57;2.23;;;10.10;62.40;;;12.77;44.96;99368.09;5034488;28;20265;-54
2023/01/15 10:51:44;;;;;;;4.27;1.73;;;10.10;62.30;;;12.72;44.50;99383.78;5036466;28;20206;-52
2023/01/15 10:54:24;;;;;;;8.80;2.53;;;10.10;61.90;;;12.60;44.29;99365.25;5023198;28;20254;-54
2023/01/15 10:57:01;;;;;;;7.93;1.53;;;10.00;61.40;;;12.60;44.81;99365.25;5030905;28;20186;-56
2023/01/15 10:59:40;;;;;;;7.47;1.33;;;10.10;61.70;;;12.58;45.23;99334.81;5027606;28;20201;-54
2023/01/15 11:02:24;;;;;;;7.60;2.07;;;10.10;62.30;;;12.52;45.38;99338.34;5016215;28;20183;-54
2023/01/15 11:04:54;;;;;;;5.87;1.60;;;10.00;63.00;;;12.52;45.89;99393.78;5031654;28;20290;-56
2023/01/15 11:07:34;;;;;;;3.33;1.10;;;10.00;63.50;;;12.41;47.04;99413.78;5031426;28;20273;-53